sensor_id;sensor_type;location;lat;lon;timestamp;P1;P2;P0
56688;PMS5003;42565;53.342;-1.534;2023-07-29T00:02:02;3;3;
56688;PMS5003;42565;53.342;-1.534;2023-07-29T00:04:30;2;1;
56688;PMS5003;42565;53.342;-1.534;2023-07-29T00:06:57;2;2;
56688;PMS5003;42565;53.342;-1.534;2023-07-29T00:09:24;3;3;
56688;PMS5003;42565;53.342;-1.534;2023-07-29T00:11:52;3;2;
56688;PMS5003;42565;53.342;-1.534;2023-07-29T00:14:18;0;0;
56688;PMS5003;42565;53.342;-1.534;2023-07-29T00:16:46;2;1;
56688;PMS5003;42565;53.342;-1.534;2023-07-29T00:19:13;2;2;
56688;PMS5003;42565;53.342;-1.534;2023-07-29T00:21:41;1;1;
56688;PMS5003;42565;53.342;-1.534;2023-07-29T00:24:08;2;2;
56688;PMS5003;42565;53.342;-1.534;2023-07-29T00:26:36;2;2;
56688;PMS5003;42565;53.342;-1.534;2023-07-29T00:29:03;1;1;
56688;PMS5003;42565;53.342;-1.534;2023-07-29T00:31:31;2;2;
56688;PMS5003;42565;53.342;-1.534;2023-07-29T00:33:58;3;2;
56688;PMS5003;42565;53.342;-1.534;2023-07-29T00:36:25;3;3;
56688;PMS5003;42565;53.342;-1.534;2023-07-29T00:38:53;2;2;
56688;PMS5003;42565;53.342;-1.534;2023-07-29T00:41:19;3;3;
56688;PMS5003;42565;53.342;-1.534;2023-07-29T00:43:48;3;3;
56688;PMS5003;42565;53.342;-1.534;2023-07-29T00:46:16;3;2;
56688;PMS5003;42565;53.342;-1.534;2023-07-29T00:48:44;3;3;
56688;PMS5003;42565;53.342;-1.534;2023-07-29T00:51:12;3;3;
56688;PMS5003;42565;53.342;-1.534;2023-07-29T00:53:38;4;3;
56688;PMS5003;42565;53.342;-1.534;2023-07-29T00:56:06;2;2;
56688;PMS5003;42565;53.342;-1.534;2023-07-29T00:58:34;4;4;
56688;PMS5003;42565;53.342;-1.534;2023-07-29T01:01:01;3;3;
56688;PMS5003;42565;53.342;-1.534;2023-07-29T01:03:29;3;2;
56688;PMS5003;42565;53.342;-1.534;2023-07-29T01:06:00;1;1;
56688;PMS5003;42565;53.342;-1.534;2023-07-29T01:08:37;3;2;
56688;PMS5003;42565;53.342;-1.534;2023-07-29T01:11:22;3;2;
56688;PMS5003;42565;53.342;-1.534;2023-07-29T01:14:00;3;3;
56688;PMS5003;42565;53.342;-1.534;2023-07-29T01:16:33;4;4;
56688;PMS5003;42565;53.342;-1.534;2023-07-29T01:19:06;4;4;
56688;PMS5003;42565;53.342;-1.534;2023-07-29T01:21:39;2;2;
56688;PMS5003;42565;53.342;-1.534;2023-07-29T01:24:07;3;3;
56688;PMS5003;42565;53.342;-1.534;2023-07-29T01:26:34;4;3;
56688;PMS5003;42565;53.342;-1.534;2023-07-29T01:29:02;4;4;
56688;PMS5003;42565;53.342;-1.534;2023-07-29T01:31:31;2;2;
56688;PMS5003;42565;53.342;-1.534;2023-07-29T01:34:02;3;2;
56688;PMS5003;42565;53.342;-1.534;2023-07-29T01:36:37;2;2;
56688;PMS5003;42565;53.342;-1.534;2023-07-29T01:39:07;4;4;
56688;PMS5003;42565;53.342;-1.534;2023-07-29T01:41:36;4;4;
56688;PMS5003;42565;53.342;-1.534;2023-07-29T01:44:03;4;3;
56688;PMS5003;42565;53.342;-1.534;2023-07-29T01:46:32;2;2;
56688;PMS5003;42565;53.342;-1.534;2023-07-29T01:49:00;2;2;
56688;PMS5003;42565;53.342;-1.534;2023-07-29T01:51:27;2;2;
56688;PMS5003;42565;53.342;-1.534;2023-07-29T01:53:54;3;3;
56688;PMS5003;42565;53.342;-1.534;2023-07-29T01:56:21;4;4;
56688;PMS5003;42565;53.342;-1.534;2023-07-29T01:58:48;4;3;
56688;PMS5003;42565;53.342;-1.534;2023-07-29T02:01:16;3;3;
56688;PMS5003;42565;53.342;-1.534;2023-07-29T02:03:43;2;2;
56688;PMS5003;42565;53.342;-1.534;2023-07-29T02:06:10;2;2;
56688;PMS5003;42565;53.342;-1.534;2023-07-29T02:08:37;3;3;
56688;PMS5003;42565;53.342;-1.534;2023-07-29T02:11:04;2;2;
56688;PMS5003;42565;53.342;-1.534;2023-07-29T02:13:32;3;3;
56688;PMS5003;42565;53.342;-1.534;2023-07-29T02:15:58;2;2;
56688;PMS5003;42565;53.342;-1.534;2023-07-29T02:18:25;1;1;
56688;PMS5003;42565;53.342;-1.534;2023-07-29T02:20:52;2;2;
56688;PMS5003;42565;53.342;-1.534;2023-07-29T02:23:19;3;3;
56688;PMS5003;42565;53.342;-1.534;2023-07-29T02:25:47;3;3;
56688;PMS5003;42565;53.342;-1.534;2023-07-29T02:28:14;3;3;
56688;PMS5003;42565;53.342;-1.534;2023-07-29T02:30:42;2;1;
56688;PMS5003;42565;53.342;-1.534;2023-07-29T02:33:09;1;1;
56688;PMS5003;42565;53.342;-1.534;2023-07-29T02:35:37;3;2;
56688;PMS5003;42565;53.342;-1.534;2023-07-29T02:38:04;4;3;
56688;PMS5003;42565;53.342;-1.534;2023-07-29T02:40:31;3;2;
56688;PMS5003;42565;53.342;-1.534;2023-07-29T02:42:58;4;3;
56688;PMS5003;42565;53.342;-1.534;2023-07-29T02:45:25;1;1;
56688;PMS5003;42565;53.342;-1.534;2023-07-29T02:47:52;2;1;
56688;PMS5003;42565;53.342;-1.534;2023-07-29T02:50:19;3;2;
56688;PMS5003;42565;53.342;-1.534;2023-07-29T02:52:47;3;3;
56688;PMS5003;42565;53.342;-1.534;2023-07-29T02:55:13;2;2;
56688;PMS5003;42565;53.342;-1.534;2023-07-29T02:57:41;2;2;
56688;PMS5003;42565;53.342;-1.534;2023-07-29T03:00:09;2;1;
56688;PMS5003;42565;53.342;-1.534;2023-07-29T03:02:37;2;2;
56688;PMS5003;42565;53.342;-1.534;2023-07-29T03:05:04;3;2;
56688;PMS5003;42565;53.342;-1.534;2023-07-29T03:07:32;3;2;
56688;PMS5003;42565;53.342;-1.534;2023-07-29T03:09:59;2;2;
56688;PMS5003;42565;53.342;-1.534;2023-07-29T03:12:26;3;3;
56688;PMS5003;42565;53.342;-1.534;2023-07-29T03:14:53;3;3;
56688;PMS5003;42565;53.342;-1.534;2023-07-29T03:17:20;1;1;
56688;PMS5003;42565;53.342;-1.534;2023-07-29T03:19:48;2;2;
56688;PMS5003;42565;53.342;-1.534;2023-07-29T03:22:14;1;1;
56688;PMS5003;42565;53.342;-1.534;2023-07-29T03:24:42;2;2;
56688;PMS5003;42565;53.342;-1.534;2023-07-29T03:27:08;2;2;
56688;PMS5003;42565;53.342;-1.534;2023-07-29T03:29:36;2;2;
56688;PMS5003;42565;53.342;-1.534;2023-07-29T03:32:03;3;2;
56688;PMS5003;42565;53.342;-1.534;2023-07-29T03:34:30;2;2;
56688;PMS5003;42565;53.342;-1.534;2023-07-29T03:36:57;1;1;
56688;PMS5003;42565;53.342;-1.534;2023-07-29T03:39:25;3;3;
56688;PMS5003;42565;53.342;-1.534;2023-07-29T03:41:52;1;1;
56688;PMS5003;42565;53.342;-1.534;2023-07-29T03:44:20;2;1;
56688;PMS5003;42565;53.342;-1.534;2023-07-29T03:46:47;3;2;
56688;PMS5003;42565;53.342;-1.534;2023-07-29T03:49:14;2;2;
56688;PMS5003;42565;53.342;-1.534;2023-07-29T03:51:42;3;2;
56688;PMS5003;42565;53.342;-1.534;2023-07-29T03:54:09;1;1;
56688;PMS5003;42565;53.342;-1.534;2023-07-29T03:56:36;2;2;
56688;PMS5003;42565;53.342;-1.534;2023-07-29T03:59:04;2;2;
56688;PMS5003;42565;53.342;-1.534;2023-07-29T04:01:32;3;2;
56688;PMS5003;42565;53.342;-1.534;2023-07-29T04:04:00;1;1;
56688;PMS5003;42565;53.342;-1.534;2023-07-29T04:06:26;2;2;
56688;PMS5003;42565;53.342;-1.534;2023-07-29T04:08:54;2;2;
56688;PMS5003;42565;53.342;-1.534;2023-07-29T04:11:22;3;2;
56688;PMS5003;42565;53.342;-1.534;2023-07-29T04:13:50;1;1;
56688;PMS5003;42565;53.342;-1.534;2023-07-29T04:16:17;4;3;
56688;PMS5003;42565;53.342;-1.534;2023-07-29T04:18:45;3;2;
56688;PMS5003;42565;53.342;-1.534;2023-07-29T04:21:12;3;3;
56688;PMS5003;42565;53.342;-1.534;2023-07-29T04:23:39;2;2;
56688;PMS5003;42565;53.342;-1.534;2023-07-29T04:26:06;2;2;
56688;PMS5003;42565;53.342;-1.534;2023-07-29T04:28:34;4;4;
56688;PMS5003;42565;53.342;-1.534;2023-07-29T04:31:01;2;2;
56688;PMS5003;42565;53.342;-1.534;2023-07-29T04:33:28;6;3;
56688;PMS5003;42565;53.342;-1.534;2023-07-29T04:35:56;4;3;
56688;PMS5003;42565;53.342;-1.534;2023-07-29T04:38:26;4;3;
56688;PMS5003;42565;53.342;-1.534;2023-07-29T04:40:57;3;3;
56688;PMS5003;42565;53.342;-1.534;2023-07-29T04:43:26;4;3;
56688;PMS5003;42565;53.342;-1.534;2023-07-29T04:45:53;1;1;
56688;PMS5003;42565;53.342;-1.534;2023-07-29T04:48:20;4;3;
56688;PMS5003;42565;53.342;-1.534;2023-07-29T04:50:47;4;2;
56688;PMS5003;42565;53.342;-1.534;2023-07-29T04:53:15;5;3;
56688;PMS5003;42565;53.342;-1.534;2023-07-29T04:55:43;2;2;
56688;PMS5003;42565;53.342;-1.534;2023-07-29T04:58:10;4;4;
56688;PMS5003;42565;53.342;-1.534;2023-07-29T05:00:38;3;3;
56688;PMS5003;42565;53.342;-1.534;2023-07-29T05:03:05;2;2;
56688;PMS5003;42565;53.342;-1.534;2023-07-29T05:05:33;3;2;
56688;PMS5003;42565;53.342;-1.534;2023-07-29T05:08:00;4;3;
56688;PMS5003;42565;53.342;-1.534;2023-07-29T05:10:27;2;2;
56688;PMS5003;42565;53.342;-1.534;2023-07-29T05:12:54;3;3;
56688;PMS5003;42565;53.342;-1.534;2023-07-29T05:15:21;4;3;
56688;PMS5003;42565;53.342;-1.534;2023-07-29T05:17:49;3;2;
56688;PMS5003;42565;53.342;-1.534;2023-07-29T05:20:15;5;4;
56688;PMS5003;42565;53.342;-1.534;2023-07-29T05:22:43;3;3;
56688;PMS5003;42565;53.342;-1.534;2023-07-29T05:25:10;4;3;
56688;PMS5003;42565;53.342;-1.534;2023-07-29T05:27:38;3;3;
56688;PMS5003;42565;53.342;-1.534;2023-07-29T05:30:06;4;4;
56688;PMS5003;42565;53.342;-1.534;2023-07-29T05:32:34;3;3;
56688;PMS5003;42565;53.342;-1.534;2023-07-29T05:35:01;9;7;
56688;PMS5003;42565;53.342;-1.534;2023-07-29T05:37:28;4;3;
56688;PMS5003;42565;53.342;-1.534;2023-07-29T05:39:55;3;3;
56688;PMS5003;42565;53.342;-1.534;2023-07-29T05:42:22;3;2;
56688;PMS5003;42565;53.342;-1.534;2023-07-29T05:44:50;5;5;
56688;PMS5003;42565;53.342;-1.534;2023-07-29T05:47:17;5;5;
56688;PMS5003;42565;53.342;-1.534;2023-07-29T05:49:45;9;8;
56688;PMS5003;42565;53.342;-1.534;2023-07-29T05:52:12;11;9;
56688;PMS5003;42565;53.342;-1.534;2023-07-29T05:54:40;8;8;
56688;PMS5003;42565;53.342;-1.534;2023-07-29T05:57:06;6;6;
56688;PMS5003;42565;53.342;-1.534;2023-07-29T05:59:33;6;6;
56688;PMS5003;42565;53.342;-1.534;2023-07-29T06:02:00;3;3;
56688;PMS5003;42565;53.342;-1.534;2023-07-29T06:04:27;5;3;
56688;PMS5003;42565;53.342;-1.534;2023-07-29T06:06:54;5;4;
56688;PMS5003;42565;53.342;-1.534;2023-07-29T06:09:21;4;3;
56688;PMS5003;42565;53.342;-1.534;2023-07-29T06:11:48;5;4;
56688;PMS5003;42565;53.342;-1.534;2023-07-29T06:14:15;4;4;
56688;PMS5003;42565;53.342;-1.534;2023-07-29T06:16:43;6;6;
56688;PMS5003;42565;53.342;-1.534;2023-07-29T06:19:10;7;5;
56688;PMS5003;42565;53.342;-1.534;2023-07-29T06:21:36;4;3;
56688;PMS5003;42565;53.342;-1.534;2023-07-29T06:24:03;3;3;
56688;PMS5003;42565;53.342;-1.534;2023-07-29T06:26:31;3;2;
56688;PMS5003;42565;53.342;-1.534;2023-07-29T06:28:57;5;5;
56688;PMS5003;42565;53.342;-1.534;2023-07-29T06:31:24;3;3;
56688;PMS5003;42565;53.342;-1.534;2023-07-29T06:33:51;3;3;
56688;PMS5003;42565;53.342;-1.534;2023-07-29T06:36:18;3;3;
56688;PMS5003;42565;53.342;-1.534;2023-07-29T06:38:46;3;3;
56688;PMS5003;42565;53.342;-1.534;2023-07-29T06:41:13;2;2;
56688;PMS5003;42565;53.342;-1.534;2023-07-29T06:43:41;4;4;
56688;PMS5003;42565;53.342;-1.534;2023-07-29T06:46:08;4;3;
56688;PMS5003;42565;53.342;-1.534;2023-07-29T06:48:36;3;3;
56688;PMS5003;42565;53.342;-1.534;2023-07-29T06:51:03;4;4;
56688;PMS5003;42565;53.342;-1.534;2023-07-29T06:53:30;5;4;
56688;PMS5003;42565;53.342;-1.534;2023-07-29T06:55:57;6;5;
56688;PMS5003;42565;53.342;-1.534;2023-07-29T06:58:24;4;4;
56688;PMS5003;42565;53.342;-1.534;2023-07-29T07:00:51;3;2;
56688;PMS5003;42565;53.342;-1.534;2023-07-29T07:03:18;5;3;
56688;PMS5003;42565;53.342;-1.534;2023-07-29T07:05:45;2;2;
56688;PMS5003;42565;53.342;-1.534;2023-07-29T07:08:13;2;2;
56688;PMS5003;42565;53.342;-1.534;2023-07-29T07:10:40;2;2;
56688;PMS5003;42565;53.342;-1.534;2023-07-29T07:13:08;1;1;
56688;PMS5003;42565;53.342;-1.534;2023-07-29T07:15:35;2;2;
56688;PMS5003;42565;53.342;-1.534;2023-07-29T07:18:02;3;3;
56688;PMS5003;42565;53.342;-1.534;2023-07-29T07:20:29;2;2;
56688;PMS5003;42565;53.342;-1.534;2023-07-29T07:22:57;4;4;
56688;PMS5003;42565;53.342;-1.534;2023-07-29T07:25:24;3;3;
56688;PMS5003;42565;53.342;-1.534;2023-07-29T07:27:51;5;4;
56688;PMS5003;42565;53.342;-1.534;2023-07-29T07:30:18;2;2;
56688;PMS5003;42565;53.342;-1.534;2023-07-29T07:32:45;3;3;
56688;PMS5003;42565;53.342;-1.534;2023-07-29T07:35:13;5;4;
56688;PMS5003;42565;53.342;-1.534;2023-07-29T07:37:40;3;3;
56688;PMS5003;42565;53.342;-1.534;2023-07-29T07:40:08;3;3;
56688;PMS5003;42565;53.342;-1.534;2023-07-29T07:42:35;4;4;
56688;PMS5003;42565;53.342;-1.534;2023-07-29T07:45:03;5;5;
56688;PMS5003;42565;53.342;-1.534;2023-07-29T07:47:31;4;3;
56688;PMS5003;42565;53.342;-1.534;2023-07-29T07:49:59;4;4;
56688;PMS5003;42565;53.342;-1.534;2023-07-29T07:52:26;3;3;
56688;PMS5003;42565;53.342;-1.534;2023-07-29T07:54:54;5;3;
56688;PMS5003;42565;53.342;-1.534;2023-07-29T07:57:22;3;3;
56688;PMS5003;42565;53.342;-1.534;2023-07-29T07:59:49;2;2;
56688;PMS5003;42565;53.342;-1.534;2023-07-29T08:02:16;5;4;
56688;PMS5003;42565;53.342;-1.534;2023-07-29T08:04:43;2;2;
56688;PMS5003;42565;53.342;-1.534;2023-07-29T08:07:11;2;2;
56688;PMS5003;42565;53.342;-1.534;2023-07-29T08:09:38;2;2;
56688;PMS5003;42565;53.342;-1.534;2023-07-29T08:12:06;5;3;
56688;PMS5003;42565;53.342;-1.534;2023-07-29T08:14:34;3;3;
56688;PMS5003;42565;53.342;-1.534;2023-07-29T08:17:01;3;3;
56688;PMS5003;42565;53.342;-1.534;2023-07-29T08:19:29;2;2;
56688;PMS5003;42565;53.342;-1.534;2023-07-29T08:21:56;1;1;
56688;PMS5003;42565;53.342;-1.534;2023-07-29T08:24:24;3;2;
56688;PMS5003;42565;53.342;-1.534;2023-07-29T08:26:51;3;2;
56688;PMS5003;42565;53.342;-1.534;2023-07-29T08:29:18;1;1;
56688;PMS5003;42565;53.342;-1.534;2023-07-29T08:31:45;3;2;
56688;PMS5003;42565;53.342;-1.534;2023-07-29T08:34:13;1;1;
56688;PMS5003;42565;53.342;-1.534;2023-07-29T08:36:40;2;1;
56688;PMS5003;42565;53.342;-1.534;2023-07-29T08:39:08;0;0;
56688;PMS5003;42565;53.342;-1.534;2023-07-29T08:41:37;3;3;
56688;PMS5003;42565;53.342;-1.534;2023-07-29T08:44:09;2;2;
56688;PMS5003;42565;53.342;-1.534;2023-07-29T08:46:43;0;0;
56688;PMS5003;42565;53.342;-1.534;2023-07-29T08:49:11;2;2;
56688;PMS5003;42565;53.342;-1.534;2023-07-29T08:51:38;2;2;
56688;PMS5003;42565;53.342;-1.534;2023-07-29T08:54:07;2;2;
56688;PMS5003;42565;53.342;-1.534;2023-07-29T08:56:36;2;0;
56688;PMS5003;42565;53.342;-1.534;2023-07-29T08:59:04;2;2;
56688;PMS5003;42565;53.342;-1.534;2023-07-29T09:01:32;1;1;
56688;PMS5003;42565;53.342;-1.534;2023-07-29T09:03:59;0;0;
56688;PMS5003;42565;53.342;-1.534;2023-07-29T09:06:27;1;1;
56688;PMS5003;42565;53.342;-1.534;2023-07-29T09:08:54;2;2;
56688;PMS5003;42565;53.342;-1.534;2023-07-29T09:11:22;2;2;
56688;PMS5003;42565;53.342;-1.534;2023-07-29T09:13:49;1;1;
56688;PMS5003;42565;53.342;-1.534;2023-07-29T09:16:17;2;0;
56688;PMS5003;42565;53.342;-1.534;2023-07-29T09:18:47;0;0;
56688;PMS5003;42565;53.342;-1.534;2023-07-29T09:21:15;3;1;
56688;PMS5003;42565;53.342;-1.534;2023-07-29T09:23:43;2;2;
56688;PMS5003;42565;53.342;-1.534;2023-07-29T09:26:11;2;1;
56688;PMS5003;42565;53.342;-1.534;2023-07-29T09:28:39;2;2;
56688;PMS5003;42565;53.342;-1.534;2023-07-29T09:31:06;1;1;
56688;PMS5003;42565;53.342;-1.534;2023-07-29T09:33:45;0;0;
56688;PMS5003;42565;53.342;-1.534;2023-07-29T09:36:12;1;1;
56688;PMS5003;42565;53.342;-1.534;2023-07-29T09:38:41;2;1;
56688;PMS5003;42565;53.342;-1.534;2023-07-29T09:41:09;2;1;
56688;PMS5003;42565;53.342;-1.534;2023-07-29T09:43:38;1;1;
56688;PMS5003;42565;53.342;-1.534;2023-07-29T09:46:05;1;1;
56688;PMS5003;42565;53.342;-1.534;2023-07-29T09:48:33;2;1;
56688;PMS5003;42565;53.342;-1.534;2023-07-29T09:51:09;2;1;
56688;PMS5003;42565;53.342;-1.534;2023-07-29T09:53:39;1;1;
56688;PMS5003;42565;53.342;-1.534;2023-07-29T09:56:08;0;0;
56688;PMS5003;42565;53.342;-1.534;2023-07-29T09:58:35;2;1;
56688;PMS5003;42565;53.342;-1.534;2023-07-29T10:01:03;2;2;
56688;PMS5003;42565;53.342;-1.534;2023-07-29T10:03:30;1;1;
56688;PMS5003;42565;53.342;-1.534;2023-07-29T10:05:59;2;2;
56688;PMS5003;42565;53.342;-1.534;2023-07-29T10:08:28;2;1;
56688;PMS5003;42565;53.342;-1.534;2023-07-29T10:10:57;1;1;
56688;PMS5003;42565;53.342;-1.534;2023-07-29T10:13:26;0;0;
56688;PMS5003;42565;53.342;-1.534;2023-07-29T10:15:53;1;1;
56688;PMS5003;42565;53.342;-1.534;2023-07-29T10:18:21;1;1;
56688;PMS5003;42565;53.342;-1.534;2023-07-29T10:20:50;2;1;
56688;PMS5003;42565;53.342;-1.534;2023-07-29T10:23:19;1;1;
56688;PMS5003;42565;53.342;-1.534;2023-07-29T10:25:50;1;0;
56688;PMS5003;42565;53.342;-1.534;2023-07-29T10:28:22;1;1;
56688;PMS5003;42565;53.342;-1.534;2023-07-29T10:30:56;1;1;
56688;PMS5003;42565;53.342;-1.534;2023-07-29T10:33:23;1;1;
56688;PMS5003;42565;53.342;-1.534;2023-07-29T10:35:51;0;0;
56688;PMS5003;42565;53.342;-1.534;2023-07-29T10:38:20;2;1;
56688;PMS5003;42565;53.342;-1.534;2023-07-29T10:40:51;3;2;
56688;PMS5003;42565;53.342;-1.534;2023-07-29T10:43:19;1;0;
56688;PMS5003;42565;53.342;-1.534;2023-07-29T10:45:51;3;1;
56688;PMS5003;42565;53.342;-1.534;2023-07-29T10:49:24;0;0;
56688;PMS5003;42565;53.342;-1.534;2023-07-29T10:51:51;1;1;
56688;PMS5003;42565;53.342;-1.534;2023-07-29T10:54:19;0;0;
56688;PMS5003;42565;53.342;-1.534;2023-07-29T10:56:46;1;1;
56688;PMS5003;42565;53.342;-1.534;2023-07-29T10:59:31;1;1;
56688;PMS5003;42565;53.342;-1.534;2023-07-29T11:02:00;2;1;
56688;PMS5003;42565;53.342;-1.534;2023-07-29T11:04:28;0;0;
56688;PMS5003;42565;53.342;-1.534;2023-07-29T11:07:28;2;1;
56688;PMS5003;42565;53.342;-1.534;2023-07-29T11:09:57;1;1;
56688;PMS5003;42565;53.342;-1.534;2023-07-29T11:12:34;1;1;
56688;PMS5003;42565;53.342;-1.534;2023-07-29T11:15:03;1;0;
56688;PMS5003;42565;53.342;-1.534;2023-07-29T11:17:39;1;0;
56688;PMS5003;42565;53.342;-1.534;2023-07-29T11:20:08;0;0;
56688;PMS5003;42565;53.342;-1.534;2023-07-29T11:22:36;1;1;
56688;PMS5003;42565;53.342;-1.534;2023-07-29T11:25:04;1;0;
56688;PMS5003;42565;53.342;-1.534;2023-07-29T11:27:33;0;0;
56688;PMS5003;42565;53.342;-1.534;2023-07-29T11:30:02;1;1;
56688;PMS5003;42565;53.342;-1.534;2023-07-29T11:32:30;2;2;
56688;PMS5003;42565;53.342;-1.534;2023-07-29T11:35:01;2;1;
56688;PMS5003;42565;53.342;-1.534;2023-07-29T11:37:29;3;2;
56688;PMS5003;42565;53.342;-1.534;2023-07-29T11:39:56;1;1;
56688;PMS5003;42565;53.342;-1.534;2023-07-29T11:42:23;2;1;
56688;PMS5003;42565;53.342;-1.534;2023-07-29T11:44:52;1;1;
56688;PMS5003;42565;53.342;-1.534;2023-07-29T11:47:19;1;1;
56688;PMS5003;42565;53.342;-1.534;2023-07-29T11:49:46;1;1;
56688;PMS5003;42565;53.342;-1.534;2023-07-29T11:52:14;1;1;
56688;PMS5003;42565;53.342;-1.534;2023-07-29T11:54:41;1;1;
56688;PMS5003;42565;53.342;-1.534;2023-07-29T11:57:09;1;1;
56688;PMS5003;42565;53.342;-1.534;2023-07-29T11:59:41;1;1;
56688;PMS5003;42565;53.342;-1.534;2023-07-29T12:02:10;1;1;
56688;PMS5003;42565;53.342;-1.534;2023-07-29T12:04:39;1;1;
56688;PMS5003;42565;53.342;-1.534;2023-07-29T12:07:07;2;1;
56688;PMS5003;42565;53.342;-1.534;2023-07-29T12:09:35;0;0;
56688;PMS5003;42565;53.342;-1.534;2023-07-29T12:12:02;1;1;
56688;PMS5003;42565;53.342;-1.534;2023-07-29T12:14:30;2;2;
56688;PMS5003;42565;53.342;-1.534;2023-07-29T12:16:59;2;1;
56688;PMS5003;42565;53.342;-1.534;2023-07-29T12:19:31;1;1;
56688;PMS5003;42565;53.342;-1.534;2023-07-29T12:21:59;1;1;
56688;PMS5003;42565;53.342;-1.534;2023-07-29T12:24:26;3;3;
56688;PMS5003;42565;53.342;-1.534;2023-07-29T12:26:55;1;1;
56688;PMS5003;42565;53.342;-1.534;2023-07-29T12:29:23;3;2;
56688;PMS5003;42565;53.342;-1.534;2023-07-29T12:31:56;1;1;
56688;PMS5003;42565;53.342;-1.534;2023-07-29T12:34:25;2;1;
56688;PMS5003;42565;53.342;-1.534;2023-07-29T12:36:53;1;1;
56688;PMS5003;42565;53.342;-1.534;2023-07-29T12:39:22;1;1;
56688;PMS5003;42565;53.342;-1.534;2023-07-29T12:41:52;3;1;
56688;PMS5003;42565;53.342;-1.534;2023-07-29T12:44:22;1;1;
56688;PMS5003;42565;53.342;-1.534;2023-07-29T12:46:50;1;1;
56688;PMS5003;42565;53.342;-1.534;2023-07-29T12:49:17;1;1;
56688;PMS5003;42565;53.342;-1.534;2023-07-29T12:51:45;1;1;
56688;PMS5003;42565;53.342;-1.534;2023-07-29T12:54:12;5;2;
56688;PMS5003;42565;53.342;-1.534;2023-07-29T12:56:40;3;2;
56688;PMS5003;42565;53.342;-1.534;2023-07-29T12:59:07;1;1;
56688;PMS5003;42565;53.342;-1.534;2023-07-29T13:01:35;1;0;
56688;PMS5003;42565;53.342;-1.534;2023-07-29T13:04:02;2;1;
56688;PMS5003;42565;53.342;-1.534;2023-07-29T13:06:30;2;1;
56688;PMS5003;42565;53.342;-1.534;2023-07-29T13:08:57;1;1;
56688;PMS5003;42565;53.342;-1.534;2023-07-29T13:11:25;1;1;
56688;PMS5003;42565;53.342;-1.534;2023-07-29T13:13:52;1;1;
56688;PMS5003;42565;53.342;-1.534;2023-07-29T13:16:20;1;0;
56688;PMS5003;42565;53.342;-1.534;2023-07-29T13:18:47;1;1;
56688;PMS5003;42565;53.342;-1.534;2023-07-29T13:21:15;2;1;
56688;PMS5003;42565;53.342;-1.534;2023-07-29T13:23:42;0;0;
56688;PMS5003;42565;53.342;-1.534;2023-07-29T13:26:10;2;2;
56688;PMS5003;42565;53.342;-1.534;2023-07-29T13:28:37;1;1;
56688;PMS5003;42565;53.342;-1.534;2023-07-29T13:31:05;1;1;
56688;PMS5003;42565;53.342;-1.534;2023-07-29T13:33:32;1;1;
56688;PMS5003;42565;53.342;-1.534;2023-07-29T13:35:59;2;2;
56688;PMS5003;42565;53.342;-1.534;2023-07-29T13:38:31;1;1;
56688;PMS5003;42565;53.342;-1.534;2023-07-29T13:41:03;2;2;
56688;PMS5003;42565;53.342;-1.534;2023-07-29T13:43:30;1;1;
56688;PMS5003;42565;53.342;-1.534;2023-07-29T13:46:02;0;0;
56688;PMS5003;42565;53.342;-1.534;2023-07-29T13:48:40;1;1;
56688;PMS5003;42565;53.342;-1.534;2023-07-29T13:51:09;1;1;
56688;PMS5003;42565;53.342;-1.534;2023-07-29T13:53:35;0;0;
56688;PMS5003;42565;53.342;-1.534;2023-07-29T13:56:04;2;1;
56688;PMS5003;42565;53.342;-1.534;2023-07-29T13:58:31;1;1;
56688;PMS5003;42565;53.342;-1.534;2023-07-29T14:00:58;1;1;
56688;PMS5003;42565;53.342;-1.534;2023-07-29T14:03:24;0;0;
56688;PMS5003;42565;53.342;-1.534;2023-07-29T14:05:57;2;1;
56688;PMS5003;42565;53.342;-1.534;2023-07-29T14:08:24;2;2;
56688;PMS5003;42565;53.342;-1.534;2023-07-29T14:10:51;1;1;
56688;PMS5003;42565;53.342;-1.534;2023-07-29T14:13:19;1;1;
56688;PMS5003;42565;53.342;-1.534;2023-07-29T14:15:51;2;2;
56688;PMS5003;42565;53.342;-1.534;2023-07-29T14:18:18;1;1;
56688;PMS5003;42565;53.342;-1.534;2023-07-29T14:20:45;0;0;
56688;PMS5003;42565;53.342;-1.534;2023-07-29T14:23:18;0;0;
56688;PMS5003;42565;53.342;-1.534;2023-07-29T14:25:45;1;1;
56688;PMS5003;42565;53.342;-1.534;2023-07-29T14:28:13;1;1;
56688;PMS5003;42565;53.342;-1.534;2023-07-29T14:30:40;2;1;
56688;PMS5003;42565;53.342;-1.534;2023-07-29T14:33:08;1;1;
56688;PMS5003;42565;53.342;-1.534;2023-07-29T14:35:36;1;1;
56688;PMS5003;42565;53.342;-1.534;2023-07-29T14:38:08;2;1;
56688;PMS5003;42565;53.342;-1.534;2023-07-29T14:40:47;1;1;
56688;PMS5003;42565;53.342;-1.534;2023-07-29T14:43:14;1;0;
56688;PMS5003;42565;53.342;-1.534;2023-07-29T14:45:41;1;1;
56688;PMS5003;42565;53.342;-1.534;2023-07-29T14:48:08;1;1;
56688;PMS5003;42565;53.342;-1.534;2023-07-29T14:50:36;0;0;
56688;PMS5003;42565;53.342;-1.534;2023-07-29T14:53:03;2;1;
56688;PMS5003;42565;53.342;-1.534;2023-07-29T14:55:31;1;1;
56688;PMS5003;42565;53.342;-1.534;2023-07-29T14:57:58;1;1;
56688;PMS5003;42565;53.342;-1.534;2023-07-29T15:00:26;0;0;
56688;PMS5003;42565;53.342;-1.534;2023-07-29T15:02:53;0;0;
56688;PMS5003;42565;53.342;-1.534;2023-07-29T15:05:21;1;1;
56688;PMS5003;42565;53.342;-1.534;2023-07-29T15:07:48;0;0;
56688;PMS5003;42565;53.342;-1.534;2023-07-29T15:10:16;1;1;
56688;PMS5003;42565;53.342;-1.534;2023-07-29T15:12:43;1;0;
56688;PMS5003;42565;53.342;-1.534;2023-07-29T15:15:11;1;1;
56688;PMS5003;42565;53.342;-1.534;2023-07-29T15:17:38;0;0;
56688;PMS5003;42565;53.342;-1.534;2023-07-29T15:20:06;0;0;
56688;PMS5003;42565;53.342;-1.534;2023-07-29T15:22:33;1;1;
56688;PMS5003;42565;53.342;-1.534;2023-07-29T15:25:01;0;0;
56688;PMS5003;42565;53.342;-1.534;2023-07-29T15:27:29;1;1;
56688;PMS5003;42565;53.342;-1.534;2023-07-29T15:29:56;1;1;
56688;PMS5003;42565;53.342;-1.534;2023-07-29T15:32:23;1;1;
56688;PMS5003;42565;53.342;-1.534;2023-07-29T15:34:51;0;0;
56688;PMS5003;42565;53.342;-1.534;2023-07-29T15:37:18;0;0;
56688;PMS5003;42565;53.342;-1.534;2023-07-29T15:39:46;1;0;
56688;PMS5003;42565;53.342;-1.534;2023-07-29T15:42:13;1;1;
56688;PMS5003;42565;53.342;-1.534;2023-07-29T15:44:40;1;1;
56688;PMS5003;42565;53.342;-1.534;2023-07-29T15:47:08;1;0;
56688;PMS5003;42565;53.342;-1.534;2023-07-29T15:49:35;0;0;
56688;PMS5003;42565;53.342;-1.534;2023-07-29T15:52:03;2;1;
56688;PMS5003;42565;53.342;-1.534;2023-07-29T15:54:30;0;0;
56688;PMS5003;42565;53.342;-1.534;2023-07-29T15:56:58;1;1;
56688;PMS5003;42565;53.342;-1.534;2023-07-29T15:59:26;2;2;
56688;PMS5003;42565;53.342;-1.534;2023-07-29T16:01:53;2;0;
56688;PMS5003;42565;53.342;-1.534;2023-07-29T16:04:20;0;0;
56688;PMS5003;42565;53.342;-1.534;2023-07-29T16:06:47;0;0;
56688;PMS5003;42565;53.342;-1.534;2023-07-29T16:09:15;0;0;
56688;PMS5003;42565;53.342;-1.534;2023-07-29T16:11:42;0;0;
56688;PMS5003;42565;53.342;-1.534;2023-07-29T16:14:09;0;0;
56688;PMS5003;42565;53.342;-1.534;2023-07-29T16:16:37;2;2;
56688;PMS5003;42565;53.342;-1.534;2023-07-29T16:19:04;3;1;
56688;PMS5003;42565;53.342;-1.534;2023-07-29T16:21:32;1;1;
56688;PMS5003;42565;53.342;-1.534;2023-07-29T16:24:00;0;0;
56688;PMS5003;42565;53.342;-1.534;2023-07-29T16:26:27;1;1;
56688;PMS5003;42565;53.342;-1.534;2023-07-29T16:28:54;1;1;
56688;PMS5003;42565;53.342;-1.534;2023-07-29T16:31:21;1;1;
56688;PMS5003;42565;53.342;-1.534;2023-07-29T16:33:49;2;1;
56688;PMS5003;42565;53.342;-1.534;2023-07-29T16:36:17;1;1;
56688;PMS5003;42565;53.342;-1.534;2023-07-29T16:38:45;1;1;
56688;PMS5003;42565;53.342;-1.534;2023-07-29T16:41:12;0;0;